createdAt,value
2023-02-18T00:00:36.197Z,5.43
2023-02-18T00:03:04.076Z,6.33
2023-02-18T00:05:31.878Z,7.00
2023-02-18T00:07:59.657Z,5.93
2023-02-18T00:10:28.772Z,5.67
2023-02-18T00:12:56.590Z,5.80
2023-02-18T00:15:24.378Z,6.73
2023-02-18T00:17:52.183Z,8.53
2023-02-18T00:20:20.292Z,6.30
2023-02-18T00:22:48.059Z,6.43
2023-02-18T00:25:15.972Z,5.50
2023-02-18T00:27:45.171Z,6.43
2023-02-18T00:30:13.562Z,5.93
2023-02-18T00:32:41.406Z,6.37
2023-02-18T00:35:10.119Z,5.50
2023-02-18T00:37:37.868Z,6.37
2023-02-18T00:40:06.681Z,6.40
2023-02-18T00:42:34.776Z,4.80
2023-02-18T00:45:03.923Z,6.80
2023-02-18T00:47:31.672Z,5.57
2023-02-18T00:49:59.444Z,6.40
2023-02-18T00:52:27.212Z,8.10
2023-02-18T00:54:55.007Z,6.60
2023-02-18T00:57:22.764Z,6.30
2023-02-18T00:59:50.532Z,9.30
2023-02-18T01:02:19.770Z,6.97
2023-02-18T01:04:47.616Z,8.83
2023-02-18T01:07:15.432Z,7.37
2023-02-18T01:09:43.224Z,6.40
2023-02-18T01:12:10.988Z,6.17
2023-02-18T01:14:38.772Z,7.10
2023-02-18T01:17:06.566Z,6.73
2023-02-18T01:19:35.712Z,5.83
2023-02-18T01:22:03.704Z,6.60
2023-02-18T01:24:31.596Z,6.00
2023-02-18T01:26:59.433Z,4.47
2023-02-18T01:29:27.581Z,4.60
2023-02-18T01:31:55.459Z,3.33
2023-02-18T01:34:23.346Z,3.77
2023-02-18T01:36:52.452Z,3.73
2023-02-18T01:39:20.240Z,3.43
2023-02-18T01:41:48.313Z,3.13
2023-02-18T01:44:18.857Z,2.90
2023-02-18T01:46:46.709Z,2.70
2023-02-18T01:49:19.174Z,3.13
2023-02-18T01:51:50.625Z,3.40
2023-02-18T01:54:23.206Z,2.33
2023-02-18T01:56:56.020Z,5.40
2023-02-18T01:59:26.809Z,2.67
2023-02-18T02:01:55.686Z,2.40
2023-02-18T02:04:24.242Z,3.20
2023-02-18T02:06:52.036Z,2.77
2023-02-18T02:09:23.994Z,2.20
2023-02-18T02:12:11.136Z,3.00
2023-02-18T02:15:07.258Z,3.10
2023-02-18T02:17:46.532Z,2.83
2023-02-18T02:20:53.585Z,2.33
2023-02-18T02:23:59.203Z,2.80
2023-02-18T02:26:59.230Z,3.20
2023-02-18T02:29:49.566Z,3.30
2023-02-18T02:32:36.911Z,3.43
2023-02-18T02:35:09.697Z,4.03
2023-02-18T02:37:45.747Z,2.87
2023-02-18T02:40:26.093Z,3.93
2023-02-18T02:43:06.535Z,3.20
2023-02-18T02:45:45.207Z,4.20
2023-02-18T02:48:24.562Z,3.20
2023-02-18T02:50:59.002Z,3.27
2023-02-18T02:53:30.881Z,3.03
2023-02-18T02:55:58.672Z,3.97
2023-02-18T02:58:26.561Z,3.00
2023-02-18T03:01:10.293Z,2.70
2023-02-18T03:03:56.011Z,3.40
2023-02-18T03:06:48.929Z,2.73
2023-02-18T03:09:22.844Z,2.80
2023-02-18T03:11:59.558Z,2.50
2023-02-18T03:14:31.177Z,2.20
2023-02-18T03:17:04.124Z,2.60
2023-02-18T03:19:36.438Z,2.33
2023-02-18T03:22:09.581Z,2.60
2023-02-18T03:24:40.261Z,2.50
2023-02-18T03:27:12.720Z,1.93
2023-02-18T03:29:41.670Z,2.10
2023-02-18T03:32:13.156Z,2.33
2023-02-18T03:34:44.949Z,1.50
2023-02-18T03:37:15.311Z,2.13
2023-02-18T03:39:47.660Z,1.57
2023-02-18T03:42:16.900Z,1.67
2023-02-18T03:44:44.668Z,2.20
2023-02-18T03:47:12.876Z,2.53
2023-02-18T03:49:40.645Z,7.30
2023-02-18T03:52:08.406Z,2.00
2023-02-18T03:54:37.506Z,1.57
2023-02-18T03:57:05.464Z,2.00
2023-02-18T03:59:33.246Z,1.90
2023-02-18T04:02:01.090Z,1.90
2023-02-18T04:04:29.450Z,1.90
2023-02-18T04:06:57.402Z,1.80
2023-02-18T04:09:25.323Z,3.30
2023-02-18T04:11:54.530Z,2.30
2023-02-18T04:14:22.389Z,1.27
2023-02-18T04:16:50.346Z,1.80
2023-02-18T04:19:18.231Z,2.70
2023-02-18T04:21:46.109Z,1.60
2023-02-18T04:24:14.072Z,1.40
2023-02-18T04:26:42.082Z,1.90
2023-02-18T04:29:11.278Z,1.80
2023-02-18T04:31:39.197Z,2.47
2023-02-18T04:34:08.132Z,1.70
2023-02-18T04:36:36.052Z,1.80
2023-02-18T04:39:04.116Z,1.50
2023-02-18T04:41:32.117Z,2.17
2023-02-18T04:44:00.632Z,2.90
2023-02-18T04:46:30.210Z,1.90
2023-02-18T04:48:58.142Z,1.40
2023-02-18T04:51:26.054Z,1.60
2023-02-18T04:53:53.981Z,1.37
2023-02-18T04:56:21.877Z,1.57
2023-02-18T04:58:49.812Z,1.67
2023-02-18T05:01:17.697Z,2.10
2023-02-18T05:03:47.010Z,1.30
2023-02-18T05:06:14.905Z,2.00
2023-02-18T05:08:42.761Z,0.90
2023-02-18T05:11:11.079Z,2.20
2023-02-18T05:13:38.948Z,0.60
2023-02-18T05:16:07.304Z,1.67
2023-02-18T05:18:35.447Z,0.87
2023-02-18T05:21:05.025Z,0.50
2023-02-18T05:23:33.162Z,1.00
2023-02-18T05:26:01.419Z,0.63
2023-02-18T05:28:29.348Z,1.30
2023-02-18T05:30:57.280Z,0.90
2023-02-18T05:33:25.159Z,1.07
2023-02-18T05:35:53.163Z,1.80
2023-02-18T05:38:22.423Z,0.77
2023-02-18T05:40:50.361Z,1.27
2023-02-18T05:43:18.191Z,1.30
2023-02-18T05:45:46.331Z,1.30
2023-02-18T05:48:14.211Z,1.33
2023-02-18T05:50:42.820Z,1.00
2023-02-18T05:53:10.934Z,2.07
2023-02-18T05:55:40.177Z,1.63
2023-02-18T05:58:08.272Z,2.07
2023-02-18T06:00:36.151Z,3.90
2023-02-18T06:03:04.095Z,3.30
2023-02-18T06:05:32.026Z,2.57
2023-02-18T06:07:59.942Z,2.73
2023-02-18T06:10:27.864Z,2.53
2023-02-18T06:12:57.073Z,3.63
2023-02-18T06:15:24.977Z,3.63
2023-02-18T06:17:52.919Z,3.43
2023-02-18T06:20:20.843Z,2.27
2023-02-18T06:22:48.746Z,2.17
2023-02-18T06:25:16.853Z,2.10
2023-02-18T06:27:44.798Z,2.40
2023-02-18T06:30:14.829Z,2.10
2023-02-18T06:32:42.762Z,3.50
2023-02-18T06:35:10.996Z,3.00
2023-02-18T06:37:38.856Z,3.43
2023-02-18T06:40:08.191Z,1.70
2023-02-18T06:42:36.084Z,3.17
2023-02-18T06:45:06.650Z,2.20
2023-02-18T06:47:36.258Z,1.80
2023-02-18T06:50:05.408Z,2.63
2023-02-18T06:52:34.637Z,2.30
2023-02-18T06:55:02.500Z,1.73
2023-02-18T06:57:30.363Z,2.30
2023-02-18T06:59:58.221Z,1.53
2023-02-18T07:02:26.124Z,1.77
2023-02-18T07:04:55.540Z,2.00
2023-02-18T07:07:23.389Z,1.80
2023-02-18T07:09:51.390Z,1.70
2023-02-18T07:12:19.273Z,2.67
2023-02-18T07:14:47.203Z,3.67
2023-02-18T07:17:15.289Z,7.33
2023-02-18T07:19:43.168Z,5.67
2023-02-18T07:22:12.467Z,5.97
2023-02-18T07:24:40.327Z,7.37
2023-02-18T07:27:08.207Z,10.97
2023-02-18T07:29:36.090Z,7.23
2023-02-18T07:32:04.179Z,9.17
2023-02-18T07:34:32.047Z,9.37
2023-02-18T07:36:59.911Z,9.50
2023-02-18T07:39:29.166Z,10.17
2023-02-18T07:41:57.014Z,10.90
2023-02-18T07:44:27.610Z,11.70
2023-02-18T07:46:55.513Z,8.80
2023-02-18T07:49:23.451Z,9.20
2023-02-18T07:51:51.889Z,11.17
2023-02-18T07:54:19.838Z,9.83
2023-02-18T07:56:49.286Z,9.70
2023-02-18T07:59:17.215Z,11.70
2023-02-18T08:01:46.176Z,8.73
2023-02-18T08:04:15.266Z,8.10
2023-02-18T08:06:46.149Z,8.37
2023-02-18T08:09:15.072Z,8.20
2023-02-18T08:11:43.387Z,8.00
2023-02-18T08:14:12.820Z,7.57
2023-02-18T08:16:41.018Z,7.73
2023-02-18T08:19:08.988Z,7.70
2023-02-18T08:21:36.891Z,6.27
2023-02-18T08:24:05.098Z,6.03
2023-02-18T08:26:32.995Z,9.43
2023-02-18T08:29:00.806Z,4.83
2023-02-18T08:31:31.368Z,6.33
2023-02-18T08:34:01.443Z,6.10
2023-02-18T08:36:29.618Z,5.30
2023-02-18T08:38:57.665Z,4.07
2023-02-18T08:41:25.770Z,4.73
2023-02-18T08:43:53.636Z,4.17
2023-02-18T08:46:25.178Z,5.00
2023-02-18T08:49:02.463Z,4.97
2023-02-18T08:51:31.505Z,4.67
2023-02-18T08:53:59.573Z,5.03
2023-02-18T08:56:27.521Z,4.00
2023-02-18T08:58:55.414Z,6.27
2023-02-18T09:01:23.345Z,5.90
2023-02-18T09:03:51.434Z,3.23
2023-02-18T09:06:20.705Z,3.43
2023-02-18T09:08:48.779Z,4.40
2023-02-18T09:11:17.250Z,4.27
2023-02-18T09:13:45.122Z,3.97
2023-02-18T09:16:15.423Z,3.47
2023-02-18T09:18:43.895Z,3.30
2023-02-18T09:21:14.044Z,3.60
2023-02-18T09:23:43.506Z,3.53
2023-02-18T09:26:14.382Z,5.87
2023-02-18T09:28:42.647Z,3.83
2023-02-18T09:31:13.207Z,3.53
2023-02-18T09:33:45.578Z,4.23
2023-02-18T09:36:14.021Z,4.73
2023-02-18T09:38:43.308Z,3.93
2023-02-18T09:41:26.002Z,4.80
2023-02-18T09:43:58.100Z,5.10
2023-02-18T09:46:30.892Z,5.53
2023-02-18T09:49:02.376Z,4.50
2023-02-18T09:51:30.276Z,5.23
2023-02-18T09:53:59.753Z,4.13
2023-02-18T09:56:31.741Z,5.00
2023-02-18T09:59:04.325Z,3.50
2023-02-18T10:01:35.315Z,4.37
2023-02-18T10:04:06.194Z,3.80
2023-02-18T10:06:36.356Z,3.53
2023-02-18T10:09:15.082Z,3.20
2023-02-18T10:11:44.930Z,3.10
2023-02-18T10:14:14.891Z,4.57
2023-02-18T10:16:44.724Z,3.10
2023-02-18T10:19:22.980Z,2.70
2023-02-18T10:21:52.936Z,3.23
2023-02-18T10:24:29.531Z,2.90
2023-02-18T10:26:57.794Z,2.40
2023-02-18T10:29:26.929Z,2.80
2023-02-18T10:32:00.526Z,2.33
2023-02-18T10:34:41.573Z,1.87
2023-02-18T10:37:28.060Z,2.20
2023-02-18T10:40:07.818Z,2.43
2023-02-18T10:42:45.680Z,1.60
2023-02-18T10:45:22.077Z,2.53
2023-02-18T10:47:58.707Z,1.90
2023-02-18T10:50:30.317Z,3.83
2023-02-18T10:53:03.184Z,2.87
2023-02-18T10:55:40.070Z,2.13
2023-02-18T10:58:26.740Z,2.90
2023-02-18T11:00:55.379Z,2.57
2023-02-18T11:03:25.425Z,2.73
2023-02-18T11:05:56.848Z,3.73
2023-02-18T11:08:28.121Z,1.93
2023-02-18T11:10:58.266Z,2.13
2023-02-18T11:13:28.686Z,1.97
2023-02-18T11:15:59.494Z,2.60
2023-02-18T11:18:38.110Z,2.33
2023-02-18T11:21:21.421Z,1.30
2023-02-18T11:23:51.140Z,2.00
2023-02-18T11:26:25.572Z,2.13
2023-02-18T11:28:59.905Z,3.63
2023-02-18T11:31:39.228Z,1.70
2023-02-18T11:34:20.135Z,1.53
2023-02-18T11:36:53.254Z,2.23
2023-02-18T11:39:27.896Z,1.30
2023-02-18T11:42:10.803Z,1.20
2023-02-18T11:44:51.559Z,1.90
2023-02-18T11:47:29.299Z,0.83
2023-02-18T11:50:31.958Z,1.20
2023-02-18T11:53:31.469Z,1.83
2023-02-18T11:56:11.318Z,1.20
2023-02-18T11:58:55.982Z,1.00
2023-02-18T12:01:53.659Z,0.70
2023-02-18T12:04:30.691Z,1.13
2023-02-18T12:07:20.313Z,0.77
2023-02-18T12:10:00.094Z,1.10
2023-02-18T12:12:50.671Z,1.90
2023-02-18T12:15:41.876Z,2.20
2023-02-18T12:18:55.214Z,0.60
2023-02-18T12:22:09.992Z,0.87
2023-02-18T12:25:06.313Z,1.40
2023-02-18T12:27:43.118Z,1.47
2023-02-18T12:30:38.651Z,1.60
2023-02-18T12:33:17.871Z,1.50
2023-02-18T12:35:55.692Z,2.00
2023-02-18T12:38:45.747Z,0.73
2023-02-18T12:41:30.931Z,4.23
2023-02-18T12:44:08.075Z,0.93
2023-02-18T12:46:51.892Z,0.97
2023-02-18T12:49:35.814Z,2.70
2023-02-18T12:52:20.959Z,0.87
2023-02-18T12:55:10.510Z,0.90
2023-02-18T12:57:44.451Z,1.50
2023-02-18T13:00:42.713Z,1.53
2023-02-18T13:03:48.059Z,1.20
2023-02-18T13:06:29.270Z,7.00
2023-02-18T13:09:08.173Z,0.97
2023-02-18T13:11:49.547Z,1.40
2023-02-18T13:14:21.941Z,0.83
2023-02-18T13:16:53.668Z,1.77
2023-02-18T13:19:26.487Z,2.40
2023-02-18T13:21:59.919Z,1.50
2023-02-18T13:24:34.031Z,4.73
2023-02-18T13:27:14.451Z,3.30
2023-02-18T13:29:49.449Z,1.60
2023-02-18T13:32:28.317Z,3.90
2023-02-18T13:35:03.406Z,1.77
2023-02-18T13:37:38.242Z,3.30
2023-02-18T13:40:18.496Z,1.90
2023-02-18T13:42:46.387Z,2.03
2023-02-18T13:45:35.476Z,1.63
2023-02-18T13:48:03.568Z,3.53
2023-02-18T13:50:43.148Z,2.60
2023-02-18T13:53:24.295Z,5.13
2023-02-18T13:56:05.357Z,1.27
2023-02-18T13:58:38.306Z,2.00
2023-02-18T14:01:15.000Z,2.80
2023-02-18T14:03:58.961Z,2.40
2023-02-18T14:06:31.864Z,2.00
2023-02-18T14:09:40.922Z,7.90
2023-02-18T14:12:27.010Z,1.53
2023-02-18T14:14:54.917Z,3.57
2023-02-18T14:17:36.084Z,2.70
2023-02-18T14:20:43.154Z,2.40
2023-02-18T14:23:45.836Z,3.90
2023-02-18T14:26:25.829Z,2.43
2023-02-18T14:28:59.887Z,5.13
2023-02-18T14:31:36.837Z,2.00
2023-02-18T14:34:36.624Z,3.53
2023-02-18T14:37:31.717Z,1.40
2023-02-18T14:40:15.410Z,4.37
2023-02-18T14:42:51.751Z,3.70
2023-02-18T14:45:32.092Z,3.20
2023-02-18T14:48:18.245Z,6.40
2023-02-18T14:50:50.344Z,1.13
2023-02-18T14:53:22.907Z,4.83
2023-02-18T14:55:55.331Z,2.43
2023-02-18T14:58:31.233Z,1.70
2023-02-18T15:00:59.311Z,1.20
2023-02-18T15:03:28.479Z,1.30
2023-02-18T15:05:56.397Z,1.70
2023-02-18T15:08:26.301Z,2.67
2023-02-18T15:11:01.796Z,1.10
2023-02-18T15:13:33.477Z,1.63
2023-02-18T15:16:05.098Z,2.10
2023-02-18T15:18:36.838Z,2.70
2023-02-18T15:21:07.774Z,2.73
2023-02-18T15:23:38.107Z,2.17
2023-02-18T15:26:09.812Z,5.30
2023-02-18T15:28:43.850Z,4.17
2023-02-18T15:31:15.258Z,1.67
2023-02-18T15:33:44.704Z,1.60
2023-02-18T15:36:15.593Z,2.27
2023-02-18T15:38:44.438Z,2.10
2023-02-18T15:41:16.412Z,2.53
2023-02-18T15:43:54.241Z,5.23
2023-02-18T15:46:26.194Z,6.20
2023-02-18T15:48:55.374Z,4.83
2023-02-18T15:51:27.315Z,3.27
2023-02-18T15:53:57.644Z,3.17
2023-02-18T15:56:32.350Z,4.97
2023-02-18T15:59:11.572Z,2.60
2023-02-18T16:01:39.541Z,1.57
2023-02-18T16:04:08.331Z,5.43
2023-02-18T16:06:39.190Z,5.73
2023-02-18T16:09:14.326Z,2.73
2023-02-18T16:11:46.623Z,4.10
2023-02-18T16:14:30.947Z,2.10
2023-02-18T16:17:09.160Z,4.07
2023-02-18T16:19:51.639Z,1.73
2023-02-18T16:22:34.169Z,4.27
2023-02-18T16:25:09.272Z,2.33
2023-02-18T16:27:47.034Z,2.67
2023-02-18T16:30:17.858Z,4.20
2023-02-18T16:32:46.264Z,1.70
2023-02-18T16:35:15.043Z,3.17
2023-02-18T16:37:45.276Z,2.53
2023-02-18T16:40:26.150Z,3.07
2023-02-18T16:42:56.705Z,8.40
2023-02-18T16:45:33.694Z,27.50
2023-02-18T16:48:02.325Z,2.53
2023-02-18T16:50:32.650Z,2.20
2023-02-18T16:53:01.888Z,1.93
2023-02-18T16:55:31.283Z,1.43
2023-02-18T16:58:00.572Z,2.23
2023-02-18T17:00:28.514Z,1.93
2023-02-18T17:02:59.580Z,1.90
2023-02-18T17:05:29.205Z,5.50
2023-02-18T17:08:00.730Z,2.63
2023-02-18T17:10:28.711Z,1.80
2023-02-18T17:12:56.679Z,2.03
2023-02-18T17:15:31.350Z,1.40
2023-02-18T17:17:59.765Z,1.60
2023-02-18T17:20:28.907Z,1.40
2023-02-18T17:22:57.130Z,1.20
2023-02-18T17:25:30.691Z,2.93
2023-02-18T17:27:58.934Z,3.00
2023-02-18T17:30:26.929Z,1.80
2023-02-18T17:32:56.427Z,1.93
2023-02-18T17:35:24.701Z,2.70
2023-02-18T17:37:52.703Z,1.73
2023-02-18T17:40:22.703Z,2.50
2023-02-18T17:42:51.373Z,1.20
2023-02-18T17:45:22.383Z,1.30
2023-02-18T17:47:50.235Z,1.63
2023-02-18T17:50:19.781Z,1.40
2023-02-18T17:52:47.610Z,2.07
2023-02-18T17:55:22.760Z,4.50
2023-02-18T17:57:52.092Z,1.20
2023-02-18T18:00:22.627Z,3.90
2023-02-18T18:02:50.788Z,2.80
2023-02-18T18:05:22.452Z,1.47
2023-02-18T18:07:51.687Z,2.53
2023-02-18T18:10:21.964Z,2.57
2023-02-18T18:12:50.865Z,2.70
2023-02-18T18:15:25.549Z,0.93
2023-02-18T18:17:53.663Z,1.53
2023-02-18T18:20:23.282Z,1.10
2023-02-18T18:22:52.234Z,3.00
2023-02-18T18:25:23.306Z,1.40
2023-02-18T18:27:52.912Z,2.00
2023-02-18T18:30:22.946Z,2.17
2023-02-18T18:32:51.246Z,1.30
2023-02-18T18:35:23.566Z,1.83
2023-02-18T18:37:51.941Z,1.00
2023-02-18T18:40:21.249Z,1.10
2023-02-18T18:42:49.128Z,1.57
2023-02-18T18:45:20.159Z,0.93
2023-02-18T18:47:48.725Z,1.33
2023-02-18T18:50:17.888Z,1.57
2023-02-18T18:52:48.240Z,2.73
2023-02-18T18:55:25.190Z,3.13
2023-02-18T18:57:54.176Z,2.40
2023-02-18T19:00:24.966Z,2.17
2023-02-18T19:02:52.868Z,1.97
2023-02-18T19:05:24.541Z,1.20
2023-02-18T19:07:53.930Z,1.87
2023-02-18T19:10:22.711Z,4.13
2023-02-18T19:12:51.064Z,2.57
2023-02-18T19:15:21.559Z,2.30
2023-02-18T19:17:51.699Z,3.03
2023-02-18T19:20:22.455Z,2.37
2023-02-18T19:22:50.644Z,2.60
2023-02-18T19:25:21.637Z,5.30
2023-02-18T19:27:50.600Z,1.60
2023-02-18T19:30:22.893Z,1.30
2023-02-18T19:32:51.387Z,3.13
2023-02-18T19:35:20.258Z,3.23
2023-02-18T19:37:50.396Z,1.50
2023-02-18T19:40:21.859Z,2.87
2023-02-18T19:42:50.320Z,1.40
2023-02-18T19:45:19.085Z,4.30
2023-02-18T19:47:47.408Z,1.73
2023-02-18T19:50:17.849Z,1.77
2023-02-18T19:52:45.725Z,1.90
2023-02-18T19:55:13.624Z,4.37
2023-02-18T19:57:42.872Z,2.50
2023-02-18T20:00:13.528Z,2.33
2023-02-18T20:02:41.773Z,3.10
2023-02-18T20:05:10.939Z,2.10
2023-02-18T20:07:41.439Z,2.17
2023-02-18T20:10:12.493Z,1.00
2023-02-18T20:12:41.737Z,3.23
2023-02-18T20:15:10.124Z,2.87
2023-02-18T20:17:39.625Z,2.80
2023-02-18T20:20:08.464Z,1.80
2023-02-18T20:22:36.412Z,2.30
2023-02-18T20:25:04.868Z,5.60
2023-02-18T20:27:34.260Z,2.20
2023-02-18T20:30:04.108Z,3.87
2023-02-18T20:32:32.215Z,3.70
2023-02-18T20:35:00.489Z,3.80
2023-02-18T20:37:28.446Z,2.23
2023-02-18T20:39:56.324Z,2.27
2023-02-18T20:42:24.308Z,4.10
2023-02-18T20:44:52.813Z,5.07
2023-02-18T20:47:22.076Z,3.73
2023-02-18T20:49:50.135Z,2.13
2023-02-18T20:52:18.005Z,2.73
2023-02-18T20:54:45.980Z,2.00
2023-02-18T20:57:13.885Z,1.97
2023-02-18T20:59:41.737Z,3.83
2023-02-18T21:02:09.731Z,2.50
2023-02-18T21:04:39.056Z,2.13
2023-02-18T21:07:07.114Z,2.43
2023-02-18T21:09:35.131Z,5.07
2023-02-18T21:12:03.040Z,3.57
2023-02-18T21:14:30.916Z,1.90
2023-02-18T21:16:58.972Z,2.20
2023-02-18T21:19:26.859Z,2.53
2023-02-18T21:21:56.955Z,3.73
2023-02-18T21:24:24.899Z,2.27
2023-02-18T21:26:53.777Z,2.37
2023-02-18T21:29:21.647Z,2.97
2023-02-18T21:31:50.059Z,3.13
2023-02-18T21:34:18.036Z,2.80
2023-02-18T21:36:46.126Z,4.10
2023-02-18T21:39:16.203Z,3.10
2023-02-18T21:41:44.158Z,3.83
2023-02-18T21:44:12.114Z,3.40
2023-02-18T21:46:41.063Z,3.60
2023-02-18T21:49:10.355Z,4.50
2023-02-18T21:51:59.138Z,3.10
2023-02-18T21:54:30.029Z,3.40
2023-02-18T21:56:59.509Z,5.00
2023-02-18T21:59:29.272Z,3.43
2023-02-18T22:02:00.332Z,4.07
2023-02-18T22:04:29.435Z,4.50
2023-02-18T22:06:58.385Z,4.93
2023-02-18T22:09:28.054Z,4.20
2023-02-18T22:11:56.300Z,3.87
2023-02-18T22:14:24.213Z,4.53
2023-02-18T22:16:52.203Z,6.40
2023-02-18T22:19:20.168Z,4.57
2023-02-18T22:21:48.794Z,5.63
2023-02-18T22:24:18.690Z,4.53
2023-02-18T22:26:49.028Z,4.00
2023-02-18T22:29:19.408Z,4.47
2023-02-18T22:31:48.047Z,5.20
2023-02-18T22:34:17.003Z,4.40
2023-02-18T22:36:44.953Z,4.10
2023-02-18T22:39:13.929Z,3.50
2023-02-18T22:41:42.035Z,4.33
2023-02-18T22:44:14.985Z,3.47
2023-02-18T22:46:43.213Z,6.77
2023-02-18T22:49:12.180Z,4.73
2023-02-18T22:51:42.265Z,3.90
2023-02-18T22:54:12.749Z,5.60
2023-02-18T22:56:40.881Z,6.63
2023-02-18T22:59:08.741Z,5.37
2023-02-18T23:01:39.974Z,4.90
2023-02-18T23:04:11.043Z,5.70
2023-02-18T23:06:40.380Z,6.33
2023-02-18T23:09:12.970Z,8.90
2023-02-18T23:11:40.894Z,6.00
2023-02-18T23:14:21.605Z,4.87
2023-02-18T23:17:11.757Z,6.57
2023-02-18T23:19:41.248Z,9.00
2023-02-18T23:22:10.163Z,7.23
2023-02-18T23:24:40.676Z,6.67
2023-02-18T23:27:10.326Z,8.43
2023-02-18T23:29:38.559Z,8.43
2023-02-18T23:32:08.590Z,9.10
2023-02-18T23:34:38.115Z,8.47
2023-02-18T23:37:06.699Z,9.33
2023-02-18T23:39:34.841Z,8.97
2023-02-18T23:42:02.773Z,9.77
2023-02-18T23:44:30.743Z,9.80
2023-02-18T23:47:00.232Z,9.07
2023-02-18T23:49:29.748Z,8.97
2023-02-18T23:51:58.328Z,8.37
2023-02-18T23:54:26.872Z,9.70
2023-02-18T23:56:54.852Z,8.53
2023-02-18T23:59:22.767Z,10.77
